Time;durP1;ratioP1;P1;durP2;ratioP2;P2;SDS_P1;SDS_P2;PMS_P1;PMS_P2;Temp;Humidity;BMP_temperature;BMP_pressure;BME280_temperature;BME280_humidity;BME280_pressure;Samples;Min_cycle;Max_cycle;Signal;HPM_P1;HPM_P2
2022/12/20 00:00:26;;;;;;;31.92;17.35;;;2.50;99.90;;;;;;5071281;28;20040;-81
2022/12/20 00:02:52;;;;;;;28.35;16.25;;;2.50;99.90;;;;;;5072033;28;20024;-82
2022/12/20 00:05:17;;;;;;;34.17;18.20;;;2.50;99.90;;;;;;5072116;28;20423;-81
2022/12/20 00:07:43;;;;;;;32.67;18.13;;;2.50;99.90;;;;;;5070540;28;20115;-80
2022/12/20 00:10:09;;;;;;;28.52;15.40;;;2.50;99.90;;;;;;5054899;28;20476;-81
2022/12/20 00:12:35;;;;;;;25.00;13.95;;;2.50;99.90;;;;;;5070758;28;20032;-79
2022/12/20 00:15:00;;;;;;;23.33;14.43;;;2.50;99.90;;;;;;5073384;28;20381;-80
2022/12/20 00:17:26;;;;;;;27.90;17.05;;;2.50;99.90;;;;;;5072022;28;20484;-80
2022/12/20 00:19:51;;;;;;;36.75;20.52;;;2.50;99.90;;;;;;5072201;28;20665;-80
2022/12/20 00:22:17;;;;;;;32.83;18.35;;;2.50;99.90;;;;;;5071547;28;20036;-80
2022/12/20 00:24:43;;;;;;;32.17;18.45;;;2.50;99.90;;;;;;5059617;28;20055;-80
2022/12/20 00:27:08;;;;;;;35.67;20.08;;;2.50;99.90;;;;;;5069302;28;20070;-81
2022/12/20 00:29:34;;;;;;;36.97;20.60;;;2.40;99.90;;;;;;5070134;28;20048;-80
2022/12/20 00:32:00;;;;;;;33.20;19.98;;;2.40;99.90;;;;;;5071360;28;20027;-80
2022/12/20 00:34:25;;;;;;;32.55;19.20;;;2.30;99.90;;;;;;5072135;28;20028;-80
2022/12/20 00:36:51;;;;;;;26.95;17.17;;;2.30;99.90;;;;;;5071443;28;20025;-81
2022/12/20 00:39:16;;;;;;;32.08;17.20;;;2.20;99.90;;;;;;5067740;28;20024;-80
2022/12/20 00:41:42;;;;;;;29.23;18.10;;;2.20;99.90;;;;;;5062215;28;20059;-80
2022/12/20 00:44:08;;;;;;;26.45;15.98;;;2.10;99.90;;;;;;5070235;28;20028;-81
2022/12/20 00:46:34;;;;;;;23.92;14.82;;;2.10;99.90;;;;;;5070872;28;20039;-79
2022/12/20 00:49:00;;;;;;;23.77;14.10;;;2.00;99.90;;;;;;5071466;28;20028;-79
2022/12/20 00:51:28;;;;;;;24.10;14.15;;;2.00;99.90;;;;;;5069087;28;20028;-79
2022/12/20 00:53:56;;;;;;;22.05;14.35;;;2.10;99.90;;;;;;5069695;28;20029;-79
2022/12/20 00:56:22;;;;;;;26.23;15.32;;;2.10;99.90;;;;;;5062910;28;20044;-79
2022/12/20 00:58:48;;;;;;;28.50;17.13;;;2.10;99.90;;;;;;5067890;28;20035;-80
2022/12/20 01:01:23;;;;;;;33.53;19.63;;;2.10;99.90;;;;;;5071939;28;20485;-80
2022/12/20 01:03:52;;;;;;;32.90;19.30;;;2.10;99.90;;;;;;5070702;28;20024;-81
2022/12/20 01:06:21;;;;;;;33.43;19.17;;;2.10;99.90;;;;;;5071826;28;20055;-80
2022/12/20 01:08:46;;;;;;;35.55;20.00;;;2.10;99.90;;;;;;5070022;28;20029;-80
2022/12/20 01:11:18;;;;;;;35.28;18.52;;;2.00;99.90;;;;;;5071337;28;20056;-81
2022/12/20 01:13:46;;;;;;;29.63;16.77;;;2.10;99.90;;;;;;5037433;28;20029;-81
2022/12/20 01:16:19;;;;;;;31.05;16.98;;;2.00;99.90;;;;;;5063997;28;20087;-80
2022/12/20 01:18:46;;;;;;;31.30;17.77;;;2.10;99.90;;;;;;5061927;28;20029;-80
2022/12/20 01:21:14;;;;;;;28.73;16.85;;;2.00;99.90;;;;;;5071492;28;20107;-79
2022/12/20 01:23:40;;;;;;;32.40;18.23;;;2.00;99.90;;;;;;5070325;28;20109;-80
2022/12/20 01:26:08;;;;;;;33.03;18.88;;;2.00;99.90;;;;;;5071233;28;20078;-79
2022/12/20 01:28:34;;;;;;;35.72;20.25;;;2.10;99.90;;;;;;5069885;28;20056;-79
2022/12/20 01:31:00;;;;;;;34.83;19.52;;;2.20;99.90;;;;;;5068106;28;20025;-80
2022/12/20 01:33:26;;;;;;;35.53;19.88;;;2.20;99.90;;;;;;5070863;28;20043;-81
2022/12/20 01:36:00;;;;;;;33.50;19.17;;;2.20;99.90;;;;;;5052635;28;20596;-81
2022/12/20 01:38:27;;;;;;;34.58;20.00;;;2.20;99.90;;;;;;5071045;28;20044;-80
2022/12/20 01:40:53;;;;;;;33.00;19.77;;;2.10;99.90;;;;;;5069088;28;20033;-81
2022/12/20 01:43:20;;;;;;;30.33;18.52;;;2.20;99.90;;;;;;5070385;28;20441;-81
2022/12/20 01:45:46;;;;;;;33.95;18.98;;;2.20;99.90;;;;;;5070899;28;20082;-79
2022/12/20 01:48:15;;;;;;;29.13;17.55;;;2.20;99.90;;;;;;5070335;28;20028;-80
2022/12/20 01:50:41;;;;;;;27.83;17.77;;;2.10;99.90;;;;;;5070629;28;20032;-81
2022/12/20 01:53:07;;;;;;;32.83;17.35;;;2.20;99.90;;;;;;5052603;28;20036;-81
2022/12/20 01:55:34;;;;;;;28.40;16.55;;;2.20;99.90;;;;;;5061048;28;20527;-81
2022/12/20 01:58:07;;;;;;;30.02;17.05;;;2.30;99.90;;;;;;5070473;28;20094;-79
2022/12/20 02:00:32;;;;;;;27.17;16.42;;;2.30;99.90;;;;;;5070677;28;20059;-78
2022/12/20 02:03:02;;;;;;;32.85;18.25;;;2.40;99.90;;;;;;5070560;28;20438;-79
2022/12/20 02:05:33;;;;;;;36.15;20.38;;;2.40;99.90;;;;;;5071086;28;20051;-80
2022/12/20 02:07:58;;;;;;;32.22;18.08;;;2.30;99.90;;;;;;5052326;28;20036;-79
2022/12/20 02:10:55;;;;;;;30.80;18.42;;;2.30;99.90;;;;;;5070957;28;20454;-79
2022/12/20 02:13:46;;;;;;;34.17;17.70;;;2.30;99.90;;;;;;5065562;28;20090;-80
2022/12/20 02:16:19;;;;;;;29.38;17.33;;;2.30;99.90;;;;;;5070463;28;20047;-79
2022/12/20 02:18:56;;;;;;;28.65;16.77;;;2.30;99.90;;;;;;5067837;28;20024;-79
2022/12/20 02:21:41;;;;;;;29.92;16.52;;;2.30;99.90;;;;;;5071093;28;20107;-79
2022/12/20 02:24:28;;;;;;;28.52;17.13;;;2.30;99.90;;;;;;5070356;28;20416;-80
2022/12/20 02:27:18;;;;;;;31.08;18.58;;;2.20;99.90;;;;;;5063495;28;20036;-79
2022/12/20 02:30:02;;;;;;;;;;;2.30;99.90;;;;;;5059601;28;20052;-79
2022/12/20 02:32:38;;;;;;;24.75;14.65;;;2.30;99.90;;;;;;5063722;28;19910;-80
2022/12/20 02:35:07;;;;;;;24.63;14.25;;;2.40;99.90;;;;;;5053067;28;20025;-79
2022/12/20 02:37:32;;;;;;;27.67;15.48;;;2.40;99.90;;;;;;5069870;28;20033;-78
2022/12/20 02:39:58;;;;;;;23.30;14.73;;;2.40;99.90;;;;;;5070006;28;20040;-78
2022/12/20 02:42:26;;;;;;;28.25;15.40;;;2.30;99.90;;;;;;5070269;28;20040;-78
2022/12/20 02:45:16;;;;;;;24.13;14.93;;;2.30;99.90;;;;;;5063721;28;20245;-79
2022/12/20 02:47:53;;;;;;;26.70;15.00;;;2.20;99.90;;;;;;5068164;28;20037;-80
2022/12/20 02:50:27;;;;;;;31.27;17.63;;;2.20;99.90;;;;;;5040984;28;20036;-80
2022/12/20 02:52:55;;;;;;;28.00;15.85;;;2.20;99.90;;;;;;5055798;28;20028;-79
2022/12/20 02:55:45;;;;;;;32.00;17.02;;;2.20;99.90;;;;;;5074286;28;20474;-80
2022/12/20 02:58:20;;;;;;;29.27;15.98;;;2.10;99.90;;;;;;5073612;28;20040;-80
2022/12/20 03:00:48;;;;;;;28.10;16.17;;;2.10;99.90;;;;;;5073556;28;20024;-79
2022/12/20 03:03:23;;;;;;;24.70;14.38;;;2.20;99.90;;;;;;5063683;28;20020;-80
2022/12/20 03:05:52;;;;;;;27.40;15.80;;;2.10;99.90;;;;;;5069842;28;20024;-80
2022/12/20 03:08:19;;;;;;;29.90;16.40;;;2.10;99.90;;;;;;5073229;28;20382;-79
2022/12/20 03:10:44;;;;;;;25.48;15.65;;;2.10;99.90;;;;;;5072997;28;20036;-80
2022/12/20 03:13:10;;;;;;;27.15;15.88;;;2.10;99.90;;;;;;5073868;28;20124;-80
2022/12/20 03:15:36;;;;;;;30.08;16.90;;;2.10;99.90;;;;;;5072663;28;20024;-78
2022/12/20 03:18:01;;;;;;;28.80;16.00;;;2.10;99.90;;;;;;5073623;28;20068;-79
2022/12/20 03:20:27;;;;;;;25.30;15.35;;;2.10;99.90;;;;;;5073841;28;20099;-78
2022/12/20 03:22:53;;;;;;;25.17;15.50;;;2.10;99.90;;;;;;5061665;28;20124;-80
2022/12/20 03:25:19;;;;;;;29.08;16.00;;;2.10;99.90;;;;;;5055819;28;20170;-79
2022/12/20 03:27:44;;;;;;;23.15;14.48;;;2.20;99.90;;;;;;5072502;28;20538;-80
2022/12/20 03:30:11;;;;;;;25.77;14.73;;;2.10;99.90;;;;;;5073473;28;20040;-80
2022/12/20 03:32:36;;;;;;;26.15;15.60;;;2.10;99.90;;;;;;5073024;28;20152;-80
2022/12/20 03:35:02;;;;;;;23.95;14.52;;;2.10;99.90;;;;;;5073811;28;20113;-80
2022/12/20 03:37:28;;;;;;;24.90;14.80;;;2.10;99.90;;;;;;5073219;28;20032;-78
2022/12/20 03:39:54;;;;;;;26.58;14.95;;;2.10;99.90;;;;;;5072348;28;20034;-79
2022/12/20 03:42:19;;;;;;;24.45;14.32;;;2.10;99.90;;;;;;5073241;28;20099;-79
2022/12/20 03:44:45;;;;;;;23.73;15.30;;;2.10;99.90;;;;;;5072301;28;20146;-79
2022/12/20 03:47:10;;;;;;;24.83;14.57;;;2.20;99.90;;;;;;5072986;28;20028;-79
2022/12/20 03:49:36;;;;;;;24.65;14.63;;;2.20;99.90;;;;;;5072385;28;20524;-79
2022/12/20 03:52:02;;;;;;;23.58;13.25;;;2.20;99.90;;;;;;5073003;28;20488;-79
2022/12/20 03:54:27;;;;;;;24.50;13.70;;;2.20;99.90;;;;;;5072564;28;20104;-79
2022/12/20 03:56:53;;;;;;;22.83;14.15;;;2.20;99.90;;;;;;5071817;28;20068;-79
2022/12/20 03:59:19;;;;;;;24.63;14.38;;;2.20;99.90;;;;;;5072656;28;20055;-80
2022/12/20 04:01:44;;;;;;;25.27;14.77;;;2.20;99.90;;;;;;5072031;28;20059;-79
2022/12/20 04:04:15;;;;;;;21.23;13.90;;;2.20;99.90;;;;;;5071344;28;20533;-80
2022/12/20 04:06:41;;;;;;;26.73;15.40;;;2.20;99.90;;;;;;5071722;28;20029;-79
2022/12/20 04:09:07;;;;;;;26.08;15.55;;;2.20;99.90;;;;;;5072857;28;20103;-80
2022/12/20 04:11:32;;;;;;;26.80;14.02;;;2.20;99.90;;;;;;5076527;28;20064;-78
2022/12/20 04:13:58;;;;;;;27.02;15.13;;;2.30;99.90;;;;;;5071946;28;20075;-81
2022/12/20 04:16:26;;;;;;;23.35;13.82;;;2.30;99.90;;;;;;5054933;28;20035;-81
2022/12/20 04:18:52;;;;;;;20.60;13.43;;;2.30;99.90;;;;;;5066693;28;20032;-80
2022/12/20 04:21:23;;;;;;;24.92;14.98;;;2.30;99.90;;;;;;5067513;28;20079;-82
2022/12/20 04:23:49;;;;;;;24.88;14.25;;;2.30;99.90;;;;;;5072220;28;20528;-80
2022/12/20 04:26:15;;;;;;;23.80;14.50;;;2.30;99.90;;;;;;5072317;28;20032;-81
2022/12/20 04:28:40;;;;;;;22.58;14.13;;;2.40;99.90;;;;;;5071280;28;20102;-79
2022/12/20 04:31:09;;;;;;;24.35;15.05;;;2.40;99.90;;;;;;5071888;28;20067;-81
2022/12/20 04:33:35;;;;;;;23.17;15.25;;;2.40;99.90;;;;;;5071197;28;20032;-80
2022/12/20 04:36:02;;;;;;;28.25;16.13;;;2.50;99.90;;;;;;5066572;28;20478;-78
2022/12/20 04:38:27;;;;;;;24.98;13.50;;;2.50;99.90;;;;;;5068141;28;20025;-79
2022/12/20 04:40:54;;;;;;;26.88;14.68;;;2.60;99.90;;;;;;5071939;28;20236;-80
2022/12/20 04:43:20;;;;;;;22.60;13.60;;;2.70;99.90;;;;;;5071567;28;20033;-80
2022/12/20 04:45:56;;;;;;;28.17;13.80;;;2.70;99.90;;;;;;5071296;28;20485;-78
2022/12/20 04:48:27;;;;;;;25.50;13.73;;;2.80;99.90;;;;;;5071047;28;20033;-79
2022/12/20 04:50:54;;;;;;;22.02;12.63;;;2.80;99.90;;;;;;5071731;28;20020;-79
2022/12/20 04:56:05;;;;;;;24.42;13.95;;;2.80;99.90;;;;;;5069256;28;20060;-79
2022/12/20 04:58:34;;;;;;;21.08;13.23;;;2.90;99.90;;;;;;5066029;28;20052;-78
2022/12/20 05:01:00;;;;;;;24.45;12.88;;;2.80;99.90;;;;;;5061005;28;20063;-80
2022/12/20 05:03:26;;;;;;;23.08;12.73;;;2.80;99.90;;;;;;5072781;28;20449;-78
2022/12/20 05:05:52;;;;;;;22.33;12.27;;;2.90;99.90;;;;;;5073376;28;20020;-80
2022/12/20 05:08:17;;;;;;;22.92;12.15;;;2.90;99.90;;;;;;5072364;28;20033;-81
2022/12/20 05:10:43;;;;;;;18.17;11.70;;;2.90;99.90;;;;;;5065274;28;20028;-80
2022/12/20 05:13:09;;;;;;;19.23;11.48;;;3.00;99.90;;;;;;5071808;28;20024;-80
2022/12/20 05:15:34;;;;;;;19.33;11.93;;;3.00;99.90;;;;;;5070724;28;20056;-79
2022/12/20 05:18:00;;;;;;;19.92;11.00;;;3.00;99.90;;;;;;5071039;28;20401;-79
2022/12/20 05:20:27;;;;;;;18.13;11.20;;;3.00;99.90;;;;;;5071534;28;20484;-79
2022/12/20 05:28:26;;;;;;;19.50;11.10;;;3.10;99.90;;;;;;5070773;28;20531;-81
2022/12/20 05:30:51;;;;;;;18.60;11.45;;;3.00;99.90;;;;;;5070205;28;20024;-80
2022/12/20 05:33:17;;;;;;;18.65;11.15;;;3.00;99.90;;;;;;5071475;28;20028;-82
2022/12/20 05:35:43;;;;;;;19.27;12.43;;;3.00;99.90;;;;;;5068451;28;20462;-80
2022/12/20 05:38:08;;;;;;;22.92;13.70;;;3.00;99.90;;;;;;5070972;28;20085;-73
2022/12/20 05:40:34;;;;;;;24.58;15.20;;;3.00;99.90;;;;;;5069941;28;20031;-79
2022/12/20 05:43:00;;;;;;;26.67;14.75;;;3.00;99.90;;;;;;5069829;28;20031;-81
2022/12/20 05:45:25;;;;;;;21.42;14.02;;;2.90;99.90;;;;;;5066649;28;20102;-78
2022/12/20 05:47:51;;;;;;;22.45;12.60;;;2.90;99.90;;;;;;5067913;28;20175;-81
2022/12/20 05:50:17;;;;;;;20.27;13.30;;;2.90;99.90;;;;;;5070400;28;20147;-80
2022/12/20 05:52:44;;;;;;;20.70;13.15;;;2.90;99.90;;;;;;5068941;28;20377;-80
2022/12/20 05:55:09;;;;;;;23.45;14.85;;;2.80;99.90;;;;;;5069704;28;20025;-79
2022/12/20 05:57:35;;;;;;;24.85;13.98;;;2.80;99.90;;;;;;5068841;28;20043;-79
2022/12/20 06:00:03;;;;;;;24.40;13.60;;;2.80;99.90;;;;;;5068834;28;20098;-80
2022/12/20 06:02:28;;;;;;;20.55;13.70;;;2.80;99.90;;;;;;5069941;28;20032;-80
2022/12/20 06:04:54;;;;;;;24.85;13.80;;;2.80;99.90;;;;;;5070772;28;20025;-79
2022/12/20 06:07:20;;;;;;;23.85;13.85;;;2.80;99.90;;;;;;5061226;28;20071;-78
2022/12/20 06:09:46;;;;;;;24.75;14.07;;;2.80;99.90;;;;;;5069204;28;20029;-79
2022/12/20 06:12:12;;;;;;;24.33;13.07;;;2.80;99.90;;;;;;5072198;28;20046;-80
2022/12/20 06:14:38;;;;;;;24.75;12.50;;;2.70;99.90;;;;;;5079968;28;20032;-80
2022/12/20 06:17:04;;;;;;;19.48;11.52;;;2.70;99.90;;;;;;5059457;28;20388;-80
2022/12/20 06:19:29;;;;;;;16.30;10.55;;;2.70;99.90;;;;;;5073438;28;20076;-80
2022/12/20 06:21:55;;;;;;;23.25;11.57;;;2.70;99.90;;;;;;5070707;28;20025;-80
2022/12/20 06:24:24;;;;;;;17.48;10.90;;;2.70;99.90;;;;;;5060736;28;20107;-80
2022/12/20 06:26:50;;;;;;;20.20;11.88;;;2.70;99.90;;;;;;5072426;28;20037;-80
2022/12/20 06:29:16;;;;;;;22.42;12.60;;;2.70;99.90;;;;;;5075508;28;20403;-81
2022/12/20 06:31:43;;;;;;;25.27;13.32;;;2.70;99.90;;;;;;5062655;28;20075;-80
2022/12/20 06:34:09;;;;;;;22.20;13.45;;;2.70;99.90;;;;;;5068007;28;20158;-79
2022/12/20 06:36:34;;;;;;;22.58;12.45;;;2.70;99.90;;;;;;5071806;28;20116;-78
2022/12/20 06:39:00;;;;;;;26.50;14.85;;;2.70;99.90;;;;;;5067594;28;20098;-79
2022/12/20 06:41:26;;;;;;;26.38;15.25;;;2.70;99.90;;;;;;5074845;28;20462;-78
2022/12/20 06:43:52;;;;;;;28.48;15.52;;;2.70;99.90;;;;;;5073652;28;20024;-80
2022/12/20 06:46:17;;;;;;;26.10;14.60;;;2.80;99.90;;;;;;5074246;28;20036;-80
2022/12/20 06:48:43;;;;;;;27.73;15.15;;;2.80;99.90;;;;;;5072507;28;20083;-80
2022/12/20 06:51:09;;;;;;;22.92;13.55;;;2.80;99.90;;;;;;5074990;28;20107;-80
2022/12/20 06:53:35;;;;;;;19.23;12.32;;;2.90;99.90;;;;;;5073228;28;20501;-80
2022/12/20 06:56:01;;;;;;;15.48;9.90;;;2.90;99.90;;;;;;5056809;28;20052;-79
2022/12/20 06:58:26;;;;;;;19.17;11.23;;;3.00;99.90;;;;;;5072943;28;20032;-81
2022/12/20 07:00:53;;;;;;;20.52;10.98;;;3.20;99.90;;;;;;5073392;28;20107;-80
2022/12/20 07:03:19;;;;;;;18.27;11.20;;;3.20;99.90;;;;;;5073890;28;20032;-79
2022/12/20 07:05:51;;;;;;;22.33;11.88;;;3.30;99.90;;;;;;5073567;28;20031;-79
2022/12/20 07:08:18;;;;;;;20.33;11.02;;;3.40;99.90;;;;;;5074033;28;20025;-79
2022/12/20 07:10:43;;;;;;;23.63;10.88;;;3.30;99.90;;;;;;5071848;28;20292;-80
2022/12/20 07:13:09;;;;;;;21.30;9.45;;;3.40;99.90;;;;;;5073432;28;20087;-79
2022/12/20 07:15:35;;;;;;;17.65;10.80;;;3.40;99.90;;;;;;5073136;28;20132;-79
2022/12/20 07:18:00;;;;;;;19.90;10.90;;;3.50;99.90;;;;;;5073239;28;20035;-80
2022/12/20 07:20:26;;;;;;;22.88;11.93;;;3.40;99.90;;;;;;5072522;28;20036;-79
2022/12/20 07:22:51;;;;;;;24.55;13.82;;;3.40;99.90;;;;;;5065038;28;20085;-80
2022/12/20 07:25:17;;;;;;;28.15;14.35;;;3.40;99.90;;;;;;5069429;28;20025;-76
2022/12/20 07:27:46;;;;;;;30.27;17.20;;;3.40;99.90;;;;;;5071836;28;20032;-75
2022/12/20 07:30:13;;;;;;;35.37;17.13;;;3.40;99.90;;;;;;5072431;28;20032;-78
2022/12/20 07:32:38;;;;;;;28.10;15.80;;;3.40;99.90;;;;;;5051068;28;20318;-75
2022/12/20 07:35:04;;;;;;;28.27;16.42;;;3.50;99.90;;;;;;5051824;28;20516;-72
2022/12/20 07:37:30;;;;;;;29.23;16.23;;;3.40;99.90;;;;;;5071829;28;20043;-75
2022/12/20 07:39:56;;;;;;;25.25;15.07;;;3.40;99.90;;;;;;5066482;28;20108;-73
2022/12/20 07:42:22;;;;;;;29.55;15.90;;;3.30;99.90;;;;;;5072657;28;20097;-72
2022/12/20 07:44:47;;;;;;;25.92;15.02;;;3.30;99.90;;;;;;5071006;28;20380;-75
2022/12/20 07:47:13;;;;;;;25.95;15.02;;;3.30;99.90;;;;;;5070003;28;20043;-76
2022/12/20 07:49:38;;;;;;;27.27;15.73;;;3.30;99.90;;;;;;5072280;28;20024;-74
2022/12/20 07:52:07;;;;;;;24.15;14.98;;;3.40;99.90;;;;;;5067399;28;20410;-75
2022/12/20 07:54:36;;;;;;;23.45;15.65;;;3.40;99.90;;;;;;5061771;28;20044;-75
2022/12/20 07:57:11;;;;;;;23.67;14.40;;;3.40;99.90;;;;;;5066062;28;20466;-74
2022/12/20 07:59:42;;;;;;;28.98;15.57;;;3.50;99.90;;;;;;5080429;28;20302;-74
2022/12/20 08:02:16;;;;;;;24.98;14.80;;;3.50;99.90;;;;;;5072736;28;20060;-74
2022/12/20 08:04:42;;;;;;;30.13;15.82;;;3.50;99.90;;;;;;5071348;28;20024;-74
2022/12/20 08:07:08;;;;;;;28.15;15.88;;;3.60;99.90;;;;;;5072200;28;20024;-74
2022/12/20 08:09:38;;;;;;;24.40;14.93;;;3.60;99.90;;;;;;5071583;28;20039;-75
2022/12/20 08:12:04;;;;;;;24.63;14.50;;;3.80;99.90;;;;;;5069815;28;20024;-74
2022/12/20 08:14:30;;;;;;;24.40;14.30;;;3.70;99.90;;;;;;5054801;28;20033;-74
2022/12/20 08:16:56;;;;;;;23.35;14.52;;;3.80;99.90;;;;;;5072383;28;20037;-74
2022/12/20 08:19:22;;;;;;;22.30;14.85;;;3.80;99.90;;;;;;5075860;28;20032;-74
2022/12/20 08:21:47;;;;;;;25.77;14.77;;;3.80;99.90;;;;;;5071401;28;20034;-74
2022/12/20 08:24:13;;;;;;;24.25;15.18;;;3.80;99.90;;;;;;5072633;28;20059;-74
2022/12/20 08:26:39;;;;;;;25.77;14.70;;;3.80;99.90;;;;;;5070832;28;20041;-75
2022/12/20 08:29:04;;;;;;;27.35;14.77;;;3.90;99.90;;;;;;5069552;28;20040;-73
2022/12/20 08:31:30;;;;;;;27.48;15.02;;;3.90;99.90;;;;;;5072349;28;20377;-74
2022/12/20 08:33:56;;;;;;;28.33;14.95;;;3.90;99.90;;;;;;5071002;28;20032;-75
2022/12/20 08:36:21;;;;;;;22.33;13.85;;;4.00;99.90;;;;;;5072134;28;20082;-74
2022/12/20 08:38:47;;;;;;;24.65;14.07;;;4.00;99.90;;;;;;5070964;28;20102;-75
2022/12/20 08:41:14;;;;;;;22.60;13.77;;;4.00;99.90;;;;;;5072916;28;20040;-74
2022/12/20 08:43:40;;;;;;;25.25;14.82;;;4.10;99.90;;;;;;5070403;28;20138;-75
2022/12/20 08:46:08;;;;;;;24.73;14.23;;;4.10;99.90;;;;;;5072217;28;20025;-73
2022/12/20 08:48:34;;;;;;;21.10;13.07;;;4.10;99.90;;;;;;5070388;28;20025;-80
2022/12/20 08:51:03;;;;;;;21.80;13.52;;;4.20;99.90;;;;;;5071463;28;20382;-74
2022/12/20 08:53:29;;;;;;;26.48;14.70;;;4.30;99.90;;;;;;5071331;28;20029;-73
2022/12/20 08:56:22;;;;;;;23.33;13.83;;;4.40;99.90;;;;;;5070753;28;20039;-71
2022/12/20 08:58:48;;;;;;;22.08;13.95;;;4.50;99.90;;;;;;5051780;28;20029;-74
2022/12/20 09:01:19;;;;;;;30.45;15.13;;;4.60;99.90;;;;;;5071542;28;20040;-73
2022/12/20 09:03:45;;;;;;;23.08;13.23;;;4.80;99.90;;;;;;5074068;28;20043;-73
2022/12/20 09:06:14;;;;;;;20.73;12.52;;;4.90;99.90;;;;;;5070452;28;20466;-73
2022/12/20 09:08:40;;;;;;;20.83;12.17;;;5.00;99.90;;;;;;5069765;28;20440;-73
2022/12/20 09:11:15;;;;;;;23.00;13.07;;;5.10;99.90;;;;;;5071178;28;20037;-73
2022/12/20 09:13:41;;;;;;;23.60;12.80;;;5.10;99.90;;;;;;5070295;28;20021;-73
2022/12/20 09:16:08;;;;;;;26.63;12.88;;;5.20;99.90;;;;;;5070495;28;20132;-73
2022/12/20 09:18:34;;;;;;;20.90;14.13;;;5.20;99.90;;;;;;5061265;28;20386;-72
2022/12/20 09:21:01;;;;;;;18.38;12.10;;;5.20;99.90;;;;;;5077597;28;20024;-72
2022/12/20 09:23:28;;;;;;;21.35;13.18;;;5.30;99.90;;;;;;5071598;28;20394;-73
2022/12/20 09:25:55;;;;;;;21.42;12.57;;;5.30;99.90;;;;;;5069177;28;20107;-72
2022/12/20 09:28:21;;;;;;;24.67;13.73;;;5.50;99.90;;;;;;5070309;28;20047;-72
2022/12/20 09:30:47;;;;;;;28.70;13.27;;;;;;;;;;5070221;28;20105;-72
2022/12/20 09:33:13;;;;;;;27.38;16.73;;;5.70;99.90;;;;;;5070390;28;20078;-72
2022/12/20 09:35:45;;;;;;;24.20;14.95;;;5.70;99.90;;;;;;5069347;28;20032;-72
2022/12/20 09:38:11;;;;;;;27.33;13.98;;;5.70;99.90;;;;;;5068832;28;20043;-72
2022/12/20 09:40:37;;;;;;;21.63;14.05;;;5.70;99.90;;;;;;5070156;28;20099;-71
2022/12/20 09:43:04;;;;;;;26.23;14.30;;;5.70;99.90;;;;;;5070218;28;20029;-72
2022/12/20 09:45:35;;;;;;;23.75;14.13;;;5.70;99.90;;;;;;5070595;28;20430;-72
2022/12/20 09:48:01;;;;;;;26.50;13.85;;;5.70;99.90;;;;;;5069769;28;20040;-72
2022/12/20 09:51:06;;;;;;;25.30;13.43;;;5.70;99.90;;;;;;5070531;28;20024;-72
2022/12/20 09:53:59;;;;;;;21.63;12.50;;;5.70;99.90;;;;;;5046426;28;20123;-71
2022/12/20 09:56:31;;;;;;;22.48;13.13;;;5.80;99.90;;;;;;5063170;28;20111;-72
2022/12/20 09:59:01;;;;;;;25.38;13.20;;;5.80;99.90;;;;;;5069498;28;20028;-72
2022/12/20 10:01:30;;;;;;;20.70;12.93;;;5.70;99.90;;;;;;5069953;28;20106;-72
2022/12/20 10:03:58;;;;;;;20.02;12.90;;;5.80;99.90;;;;;;5069671;28;20048;-72
2022/12/20 10:06:31;;;;;;;21.02;12.93;;;5.90;99.90;;;;;;5070177;28;20028;-72
2022/12/20 10:09:02;;;;;;;21.17;12.10;;;5.90;99.90;;;;;;5069379;28;20043;-72
2022/12/20 10:11:43;;;;;;;25.38;14.00;;;5.90;99.90;;;;;;5070001;28;20025;-72
2022/12/20 10:14:36;;;;;;;23.20;13.50;;;5.90;99.90;;;;;;5061145;28;20028;-72
2022/12/20 10:17:18;;;;;;;26.30;15.05;;;5.90;99.90;;;;;;5075212;28;20040;-72
2022/12/20 10:20:14;;;;;;;25.58;14.48;;;5.80;99.90;;;;;;5069964;28;20024;-72
2022/12/20 10:22:40;;;;;;;28.17;14.43;;;5.90;99.90;;;;;;5068061;28;20060;-71
2022/12/20 10:25:24;;;;;;;22.85;13.43;;;6.10;99.90;;;;;;5077177;28;20508;-72
2022/12/20 10:27:55;;;;;;;22.58;12.98;;;6.10;99.90;;;;;;5069365;28;20334;-71
2022/12/20 10:30:24;;;;;;;25.80;13.32;;;6.10;99.90;;;;;;5072130;28;20040;-73
2022/12/20 10:32:52;;;;;;;26.55;13.68;;;6.10;99.90;;;;;;5069281;28;20120;-72
2022/12/20 10:35:39;;;;;;;38.42;21.00;;;6.20;99.90;;;;;;5052961;28;20024;-71
2022/12/20 10:38:12;;;;;;;30.30;18.55;;;;;;;;;;5068029;28;20044;-72
2022/12/20 10:40:44;;;;;;;28.65;17.00;;;6.40;99.90;;;;;;5069077;28;20017;-72
2022/12/20 10:43:20;;;;;;;25.70;14.90;;;6.50;99.90;;;;;;5070785;28;20064;-72
2022/12/20 10:46:00;;;;;;;29.27;16.17;;;6.40;99.90;;;;;;5069800;28;20043;-72
2022/12/20 10:48:28;;;;;;;27.95;15.70;;;6.40;99.90;;;;;;5072084;28;20082;-73
2022/12/20 10:50:57;;;;;;;24.27;14.02;;;6.30;99.90;;;;;;5072634;28;20040;-72
2022/12/20 10:53:24;;;;;;;24.05;14.55;;;6.30;99.90;;;;;;5069312;28;20375;-73
2022/12/20 10:55:51;;;;;;;23.27;13.60;;;6.20;99.90;;;;;;5069181;28;20078;-72
2022/12/20 10:58:28;;;;;;;21.90;13.57;;;6.20;99.90;;;;;;5069384;28;20028;-73
2022/12/20 11:01:23;;;;;;;30.30;15.25;;;6.10;99.90;;;;;;5069149;28;20044;-72
2022/12/20 11:04:28;;;;;;;33.72;17.90;;;6.10;99.90;;;;;;5070940;28;20535;-73
2022/12/20 11:06:56;;;;;;;31.80;17.17;;;6.10;99.90;;;;;;5066712;28;20036;-73
2022/12/20 11:09:35;;;;;;;31.17;16.20;;;6.10;99.90;;;;;;5050658;28;20033;-73
2022/12/20 11:12:15;;;;;;;32.90;16.23;;;6.20;99.90;;;;;;5066364;28;20052;-74
2022/12/20 11:14:46;;;;;;;30.02;16.33;;;6.30;99.90;;;;;;5066903;28;20028;-73
2022/12/20 11:17:11;;;;;;;35.55;18.30;;;6.40;99.90;;;;;;5075953;28;20076;-72
2022/12/20 11:19:58;;;;;;;31.85;16.90;;;6.40;99.90;;;;;;5072429;28;20063;-72
2022/12/20 11:22:39;;;;;;;31.63;16.63;;;6.50;99.90;;;;;;5076852;28;20141;-73
2022/12/20 11:25:13;;;;;;;30.70;17.48;;;6.50;99.90;;;;;;5072612;28;20040;-73
2022/12/20 11:27:50;;;;;;;26.60;15.10;;;6.50;99.90;;;;;;5071439;28;20067;-72
2022/12/20 11:30:43;;;;;;;34.95;16.98;;;6.60;99.90;;;;;;5072901;28;20028;-72
2022/12/20 11:33:40;;;;;;;31.63;17.40;;;6.60;99.90;;;;;;5030788;28;20055;-73
2022/12/20 11:36:09;;;;;;;34.53;17.17;;;6.70;99.90;;;;;;5067600;28;20385;-72
2022/12/20 11:38:43;;;;;;;39.25;19.58;;;6.80;99.90;;;;;;5070107;28;20099;-71
2022/12/20 11:41:32;;;;;;;36.65;18.85;;;6.80;99.90;;;;;;5073163;28;20461;-72
2022/12/20 11:44:29;;;;;;;27.90;16.92;;;6.90;99.90;;;;;;5072265;28;20024;-73
2022/12/20 11:47:23;;;;;;;30.08;17.70;;;7.00;99.90;;;;;;5075012;28;20045;-70
2022/12/20 11:50:15;;;;;;;29.23;14.77;;;7.00;99.90;;;;;;5070546;28;20481;-72
2022/12/20 11:52:47;;;;;;;24.42;13.00;;;7.10;99.90;;;;;;5071987;28;20021;-72
2022/12/20 11:55:19;;;;;;;15.98;8.80;;;7.10;99.90;;;;;;5071876;28;20446;-78
2022/12/20 11:58:08;;;;;;;17.92;9.98;;;7.00;99.90;;;;;;5071171;28;20032;-78
2022/12/20 12:00:36;;;;;;;15.07;8.70;;;7.00;99.90;;;;;;5055749;28;20036;-71
2022/12/20 12:03:24;;;;;;;14.77;8.38;;;7.00;99.90;;;;;;5086643;28;20077;-73
2022/12/20 12:06:21;;;;;;;14.07;8.00;;;7.10;99.90;;;;;;5069976;28;20576;-76
2022/12/20 12:09:08;;;;;;;12.68;8.10;;;7.00;99.90;;;;;;5055209;28;20044;-71
2022/12/20 12:11:40;;;;;;;11.23;6.85;;;7.10;99.90;;;;;;5071949;28;20020;-73
2022/12/20 12:14:10;;;;;;;13.15;7.25;;;7.10;99.90;;;;;;5063468;28;20495;-75
2022/12/20 12:16:43;;;;;;;10.30;6.63;;;7.10;99.90;;;;;;5073471;28;20036;-72
2022/12/20 12:19:11;;;;;;;9.70;6.40;;;;;;;;;;5072091;28;20074;-75
2022/12/20 12:21:43;;;;;;;12.70;6.75;;;;;;;;;;5070764;28;20363;-73
2022/12/20 12:24:29;;;;;;;9.82;6.50;;;;;;;;;;5074112;28;20043;-74
2022/12/20 12:26:55;;;;;;;13.32;8.13;;;;;;;;;;5070237;28;20032;-76
2022/12/20 12:29:21;;;;;;;14.27;8.32;;;;;;;;;;5071283;28;20040;-71
2022/12/20 12:31:57;;;;;;;15.52;8.77;;;;;;;;;;5071149;28;20531;-76
2022/12/20 12:34:41;;;;;;;15.63;9.68;;;;;;;;;;5072612;28;20488;-76
2022/12/20 12:37:08;;;;;;;16.13;8.95;;;;;;;;;;5071612;28;20466;-70
2022/12/20 12:39:39;;;;;;;11.77;7.25;;;;;;;;;;5070518;28;20048;-69
2022/12/20 12:42:09;;;;;;;12.05;6.75;;;;;;;;;;5059780;28;20068;-69
2022/12/20 12:44:38;;;;;;;11.55;6.22;;;;;;;;;;5077315;28;20060;-70
2022/12/20 12:47:10;;;;;;;9.50;5.38;;;;;;;;;;5075171;28;20037;-70
2022/12/20 12:49:37;;;;;;;9.43;5.53;;;8.00;99.90;;;;;;5070598;28;20558;-69
2022/12/20 12:52:04;;;;;;;10.60;5.80;;;7.90;99.90;;;;;;5071195;28;20036;-69
2022/12/20 12:54:45;;;;;;;9.25;5.90;;;8.00;99.90;;;;;;5071729;28;20074;-70
2022/12/20 12:57:13;;;;;;;9.95;6.68;;;8.00;99.90;;;;;;5073574;28;20107;-70
2022/12/20 12:59:48;;;;;;;10.90;6.55;;;8.10;99.90;;;;;;5080640;28;20113;-70
2022/12/20 13:02:13;;;;;;;10.85;6.88;;;8.10;99.90;;;;;;5075062;28;20055;-70
2022/12/20 13:05:11;;;;;;;16.10;8.20;;;8.10;99.90;;;;;;5070728;28;20013;-69